sensor_id;sensor_type;location;lat;lon;timestamp;temperature;humidity
20398;DHT22;10358;49.590;11.030;2022-10-30T00:00:04;13.10;99.90
20398;DHT22;10358;49.590;11.030;2022-10-30T00:02:29;13.10;99.90
20398;DHT22;10358;49.590;11.030;2022-10-30T00:04:55;13.10;99.90
20398;DHT22;10358;49.590;11.030;2022-10-30T00:07:21;13.10;99.90
20398;DHT22;10358;49.590;11.030;2022-10-30T00:09:46;13.10;99.90
20398;DHT22;10358;49.590;11.030;2022-10-30T00:12:12;13.10;99.90
20398;DHT22;10358;49.590;11.030;2022-10-30T00:14:37;13.10;99.90
20398;DHT22;10358;49.590;11.030;2022-10-30T00:17:03;13.20;99.90
20398;DHT22;10358;49.590;11.030;2022-10-30T00:19:29;13.10;99.90
20398;DHT22;10358;49.590;11.030;2022-10-30T00:21:54;13.10;99.90
20398;DHT22;10358;49.590;11.030;2022-10-30T00:24:22;13.10;99.90
20398;DHT22;10358;49.590;11.030;2022-10-30T00:26:47;13.10;99.90
20398;DHT22;10358;49.590;11.030;2022-10-30T00:29:14;13.20;99.90
20398;DHT22;10358;49.590;11.030;2022-10-30T00:31:40;13.20;99.90
20398;DHT22;10358;49.590;11.030;2022-10-30T00:34:06;13.20;99.90
20398;DHT22;10358;49.590;11.030;2022-10-30T00:36:31;13.20;99.90
20398;DHT22;10358;49.590;11.030;2022-10-30T00:38:57;13.10;99.90
20398;DHT22;10358;49.590;11.030;2022-10-30T00:41:23;13.20;99.90
20398;DHT22;10358;49.590;11.030;2022-10-30T00:43:49;13.10;99.90
20398;DHT22;10358;49.590;11.030;2022-10-30T00:46:37;13.10;99.90
20398;DHT22;10358;49.590;11.030;2022-10-30T00:49:14;13.10;99.90
20398;DHT22;10358;49.590;11.030;2022-10-30T00:51:44;13.10;99.90
20398;DHT22;10358;49.590;11.030;2022-10-30T00:54:13;13.10;99.90
20398;DHT22;10358;49.590;11.030;2022-10-30T00:56:40;13.10;99.90
20398;DHT22;10358;49.590;11.030;2022-10-30T00:59:08;13.10;99.90
20398;DHT22;10358;49.590;11.030;2022-10-30T01:01:37;13.10;99.90
20398;DHT22;10358;49.590;11.030;2022-10-30T01:04:05;13.10;99.90
20398;DHT22;10358;49.590;11.030;2022-10-30T01:06:33;13.10;99.90
20398;DHT22;10358;49.590;11.030;2022-10-30T01:09:00;13.10;99.90
20398;DHT22;10358;49.590;11.030;2022-10-30T01:11:26;13.00;99.90
20398;DHT22;10358;49.590;11.030;2022-10-30T01:13:54;13.00;99.90
20398;DHT22;10358;49.590;11.030;2022-10-30T01:33:15;13.00;99.90
20398;DHT22;10358;49.590;11.030;2022-10-30T01:35:56;13.00;99.90
20398;DHT22;10358;49.590;11.030;2022-10-30T01:38:31;13.00;99.90
20398;DHT22;10358;49.590;11.030;2022-10-30T01:40:58;12.90;99.90
20398;DHT22;10358;49.590;11.030;2022-10-30T01:43:24;12.90;99.90
20398;DHT22;10358;49.590;11.030;2022-10-30T01:57:35;12.90;99.90
20398;DHT22;10358;49.590;11.030;2022-10-30T02:00:09;12.90;99.90
20398;DHT22;10358;49.590;11.030;2022-10-30T02:02:35;12.90;99.90
20398;DHT22;10358;49.590;11.030;2022-10-30T02:05:01;12.90;99.90
20398;DHT22;10358;49.590;11.030;2022-10-30T02:07:27;12.80;99.90
20398;DHT22;10358;49.590;11.030;2022-10-30T02:09:53;12.80;99.90
20398;DHT22;10358;49.590;11.030;2022-10-30T02:12:20;12.80;99.90
20398;DHT22;10358;49.590;11.030;2022-10-30T02:14:50;12.80;99.90
20398;DHT22;10358;49.590;11.030;2022-10-30T02:17:16;12.80;99.90
20398;DHT22;10358;49.590;11.030;2022-10-30T02:19:42;12.80;99.90
20398;DHT22;10358;49.590;11.030;2022-10-30T02:22:09;12.80;99.90
20398;DHT22;10358;49.590;11.030;2022-10-30T02:24:34;12.70;99.90
20398;DHT22;10358;49.590;11.030;2022-10-30T02:27:00;12.80;99.90
20398;DHT22;10358;49.590;11.030;2022-10-30T02:29:26;12.70;99.90
20398;DHT22;10358;49.590;11.030;2022-10-30T02:31:51;12.70;99.90
20398;DHT22;10358;49.590;11.030;2022-10-30T02:34:18;12.70;99.90
20398;DHT22;10358;49.590;11.030;2022-10-30T02:36:43;12.80;99.90
20398;DHT22;10358;49.590;11.030;2022-10-30T02:39:09;12.70;99.90
20398;DHT22;10358;49.590;11.030;2022-10-30T02:41:35;12.70;99.90
20398;DHT22;10358;49.590;11.030;2022-10-30T02:44:00;12.70;99.90
20398;DHT22;10358;49.590;11.030;2022-10-30T02:46:26;12.70;99.90
20398;DHT22;10358;49.590;11.030;2022-10-30T02:48:51;12.70;99.90
20398;DHT22;10358;49.590;11.030;2022-10-30T02:51:17;12.60;99.90
20398;DHT22;10358;49.590;11.030;2022-10-30T02:53:44;12.60;99.90
20398;DHT22;10358;49.590;11.030;2022-10-30T02:56:11;12.60;99.90
20398;DHT22;10358;49.590;11.030;2022-10-30T02:58:37;12.60;99.90
20398;DHT22;10358;49.590;11.030;2022-10-30T03:01:08;12.50;99.90
20398;DHT22;10358;49.590;11.030;2022-10-30T03:03:35;12.50;99.90
20398;DHT22;10358;49.590;11.030;2022-10-30T03:06:04;12.50;99.90
20398;DHT22;10358;49.590;11.030;2022-10-30T03:08:30;12.50;99.90
20398;DHT22;10358;49.590;11.030;2022-10-30T03:11:03;12.40;99.90
20398;DHT22;10358;49.590;11.030;2022-10-30T03:13:30;12.40;99.90
20398;DHT22;10358;49.590;11.030;2022-10-30T03:16:06;12.40;99.90
20398;DHT22;10358;49.590;11.030;2022-10-30T03:18:33;12.40;99.90
20398;DHT22;10358;49.590;11.030;2022-10-30T03:21:00;12.30;99.90
20398;DHT22;10358;49.590;11.030;2022-10-30T03:23:27;12.30;99.90
20398;DHT22;10358;49.590;11.030;2022-10-30T03:25:53;12.40;99.90
20398;DHT22;10358;49.590;11.030;2022-10-30T03:28:20;12.30;99.90
20398;DHT22;10358;49.590;11.030;2022-10-30T03:30:46;12.30;99.90
20398;DHT22;10358;49.590;11.030;2022-10-30T03:33:12;12.40;99.90
20398;DHT22;10358;49.590;11.030;2022-10-30T03:35:38;12.30;99.90
20398;DHT22;10358;49.590;11.030;2022-10-30T03:38:03;12.40;99.90
20398;DHT22;10358;49.590;11.030;2022-10-30T03:40:29;12.30;99.90
20398;DHT22;10358;49.590;11.030;2022-10-30T03:42:55;12.40;99.90
20398;DHT22;10358;49.590;11.030;2022-10-30T03:45:20;12.30;99.90
20398;DHT22;10358;49.590;11.030;2022-10-30T03:47:46;12.30;99.90
20398;DHT22;10358;49.590;11.030;2022-10-30T03:50:11;12.30;99.90
20398;DHT22;10358;49.590;11.030;2022-10-30T03:52:37;12.30;99.90
20398;DHT22;10358;49.590;11.030;2022-10-30T03:55:02;12.20;99.90
20398;DHT22;10358;49.590;11.030;2022-10-30T03:57:28;12.20;99.90
20398;DHT22;10358;49.590;11.030;2022-10-30T03:59:54;12.20;99.90
20398;DHT22;10358;49.590;11.030;2022-10-30T04:02:19;12.20;99.90
20398;DHT22;10358;49.590;11.030;2022-10-30T04:04:45;12.20;99.90
20398;DHT22;10358;49.590;11.030;2022-10-30T04:07:10;12.20;99.90
20398;DHT22;10358;49.590;11.030;2022-10-30T04:09:36;12.20;99.90
20398;DHT22;10358;49.590;11.030;2022-10-30T04:12:01;12.20;99.90
20398;DHT22;10358;49.590;11.030;2022-10-30T04:14:27;12.20;99.90
20398;DHT22;10358;49.590;11.030;2022-10-30T04:16:52;12.30;99.90
20398;DHT22;10358;49.590;11.030;2022-10-30T04:19:18;12.20;99.90
20398;DHT22;10358;49.590;11.030;2022-10-30T04:21:43;12.20;99.90
20398;DHT22;10358;49.590;11.030;2022-10-30T04:24:12;12.10;99.90
20398;DHT22;10358;49.590;11.030;2022-10-30T04:26:40;12.10;99.90
20398;DHT22;10358;49.590;11.030;2022-10-30T04:29:06;12.00;99.90
20398;DHT22;10358;49.590;11.030;2022-10-30T04:31:31;12.00;99.90
20398;DHT22;10358;49.590;11.030;2022-10-30T04:33:57;12.00;99.90
20398;DHT22;10358;49.590;11.030;2022-10-30T04:36:22;12.00;99.90
20398;DHT22;10358;49.590;11.030;2022-10-30T04:38:54;12.00;99.90
20398;DHT22;10358;49.590;11.030;2022-10-30T04:41:20;11.90;99.90
20398;DHT22;10358;49.590;11.030;2022-10-30T04:43:48;11.80;99.90
20398;DHT22;10358;49.590;11.030;2022-10-30T04:46:13;11.80;99.90
20398;DHT22;10358;49.590;11.030;2022-10-30T04:48:39;11.70;99.90
20398;DHT22;10358;49.590;11.030;2022-10-30T04:51:05;11.80;99.90
20398;DHT22;10358;49.590;11.030;2022-10-30T04:53:31;11.70;99.90
20398;DHT22;10358;49.590;11.030;2022-10-30T04:55:57;11.60;99.90
20398;DHT22;10358;49.590;11.030;2022-10-30T04:58:22;11.60;99.90
20398;DHT22;10358;49.590;11.030;2022-10-30T05:00:48;11.60;99.90
20398;DHT22;10358;49.590;11.030;2022-10-30T05:03:21;11.60;99.90
20398;DHT22;10358;49.590;11.030;2022-10-30T05:05:58;11.60;99.90
20398;DHT22;10358;49.590;11.030;2022-10-30T05:08:25;11.50;99.90
20398;DHT22;10358;49.590;11.030;2022-10-30T05:10:51;11.50;99.90
20398;DHT22;10358;49.590;11.030;2022-10-30T05:13:17;11.50;99.90
20398;DHT22;10358;49.590;11.030;2022-10-30T05:15:43;11.40;99.90
20398;DHT22;10358;49.590;11.030;2022-10-30T05:18:08;11.30;99.90
20398;DHT22;10358;49.590;11.030;2022-10-30T05:20:34;11.30;99.90
20398;DHT22;10358;49.590;11.030;2022-10-30T05:23:00;11.30;99.90
20398;DHT22;10358;49.590;11.030;2022-10-30T05:25:26;11.30;99.90
20398;DHT22;10358;49.590;11.030;2022-10-30T05:27:59;11.20;99.90
20398;DHT22;10358;49.590;11.030;2022-10-30T05:30:29;11.20;99.90
20398;DHT22;10358;49.590;11.030;2022-10-30T05:32:59;11.20;99.90
20398;DHT22;10358;49.590;11.030;2022-10-30T05:35:25;11.20;99.90
20398;DHT22;10358;49.590;11.030;2022-10-30T05:37:50;11.10;99.90
20398;DHT22;10358;49.590;11.030;2022-10-30T05:40:16;11.10;99.90
20398;DHT22;10358;49.590;11.030;2022-10-30T05:42:48;11.00;99.90
20398;DHT22;10358;49.590;11.030;2022-10-30T05:45:14;11.00;99.90
20398;DHT22;10358;49.590;11.030;2022-10-30T05:47:40;11.00;99.90
20398;DHT22;10358;49.590;11.030;2022-10-30T05:50:06;11.00;99.90
20398;DHT22;10358;49.590;11.030;2022-10-30T05:52:32;11.00;99.90
20398;DHT22;10358;49.590;11.030;2022-10-30T05:54:58;10.90;99.90
20398;DHT22;10358;49.590;11.030;2022-10-30T05:57:27;11.00;99.90
20398;DHT22;10358;49.590;11.030;2022-10-30T05:59:53;11.00;99.90
20398;DHT22;10358;49.590;11.030;2022-10-30T06:02:19;11.00;99.90
20398;DHT22;10358;49.590;11.030;2022-10-30T06:04:44;11.00;99.90
20398;DHT22;10358;49.590;11.030;2022-10-30T06:07:10;11.00;99.90
20398;DHT22;10358;49.590;11.030;2022-10-30T06:09:36;11.00;99.90
20398;DHT22;10358;49.590;11.030;2022-10-30T06:12:01;11.00;99.90
20398;DHT22;10358;49.590;11.030;2022-10-30T06:14:27;11.00;99.90
20398;DHT22;10358;49.590;11.030;2022-10-30T06:16:52;11.00;99.90
20398;DHT22;10358;49.590;11.030;2022-10-30T06:19:18;11.10;99.90
20398;DHT22;10358;49.590;11.030;2022-10-30T06:21:44;11.00;99.90
20398;DHT22;10358;49.590;11.030;2022-10-30T06:24:10;11.00;99.90
20398;DHT22;10358;49.590;11.030;2022-10-30T06:26:35;10.90;99.90
20398;DHT22;10358;49.590;11.030;2022-10-30T06:29:01;11.00;99.90
20398;DHT22;10358;49.590;11.030;2022-10-30T06:31:26;10.90;99.90
20398;DHT22;10358;49.590;11.030;2022-10-30T06:33:52;10.90;99.90
20398;DHT22;10358;49.590;11.030;2022-10-30T06:36:18;11.00;99.90
20398;DHT22;10358;49.590;11.030;2022-10-30T06:38:43;11.00;99.90
20398;DHT22;10358;49.590;11.030;2022-10-30T06:41:09;11.00;99.90
20398;DHT22;10358;49.590;11.030;2022-10-30T06:43:35;11.10;99.90
20398;DHT22;10358;49.590;11.030;2022-10-30T06:46:00;11.10;99.90
20398;DHT22;10358;49.590;11.030;2022-10-30T06:48:26;11.20;99.90
20398;DHT22;10358;49.590;11.030;2022-10-30T06:50:59;11.20;99.90
20398;DHT22;10358;49.590;11.030;2022-10-30T06:53:25;11.20;99.90
20398;DHT22;10358;49.590;11.030;2022-10-30T06:56:01;11.30;99.90
20398;DHT22;10358;49.590;11.030;2022-10-30T06:58:28;11.30;99.90
20398;DHT22;10358;49.590;11.030;2022-10-30T07:00:55;11.40;99.90
20398;DHT22;10358;49.590;11.030;2022-10-30T07:03:21;11.40;99.90
20398;DHT22;10358;49.590;11.030;2022-10-30T07:05:46;11.50;99.90
20398;DHT22;10358;49.590;11.030;2022-10-30T07:08:12;11.50;99.90
20398;DHT22;10358;49.590;11.030;2022-10-30T07:10:38;11.50;99.90
20398;DHT22;10358;49.590;11.030;2022-10-30T07:13:04;11.60;99.90
20398;DHT22;10358;49.590;11.030;2022-10-30T07:15:29;11.60;99.90
20398;DHT22;10358;49.590;11.030;2022-10-30T07:17:58;11.60;99.90
20398;DHT22;10358;49.590;11.030;2022-10-30T07:20:25;11.70;99.90
20398;DHT22;10358;49.590;11.030;2022-10-30T07:22:51;11.70;99.90
20398;DHT22;10358;49.590;11.030;2022-10-30T07:25:17;11.80;99.90
20398;DHT22;10358;49.590;11.030;2022-10-30T07:27:44;11.80;99.90
20398;DHT22;10358;49.590;11.030;2022-10-30T07:30:11;11.90;99.90
20398;DHT22;10358;49.590;11.030;2022-10-30T07:32:37;11.90;99.90
20398;DHT22;10358;49.590;11.030;2022-10-30T07:35:03;12.00;99.90
20398;DHT22;10358;49.590;11.030;2022-10-30T07:37:29;12.00;99.90
20398;DHT22;10358;49.590;11.030;2022-10-30T07:39:54;12.00;99.90
20398;DHT22;10358;49.590;11.030;2022-10-30T07:42:20;12.10;99.90
20398;DHT22;10358;49.590;11.030;2022-10-30T07:44:45;12.10;99.90
20398;DHT22;10358;49.590;11.030;2022-10-30T07:47:11;12.10;99.90
20398;DHT22;10358;49.590;11.030;2022-10-30T07:49:36;12.10;99.90
20398;DHT22;10358;49.590;11.030;2022-10-30T07:52:02;12.20;99.90
20398;DHT22;10358;49.590;11.030;2022-10-30T07:54:28;12.20;99.90
20398;DHT22;10358;49.590;11.030;2022-10-30T07:56:53;12.30;99.90
20398;DHT22;10358;49.590;11.030;2022-10-30T07:59:19;12.50;99.90
20398;DHT22;10358;49.590;11.030;2022-10-30T08:01:45;12.60;99.90
20398;DHT22;10358;49.590;11.030;2022-10-30T08:04:10;12.60;99.90
20398;DHT22;10358;49.590;11.030;2022-10-30T08:06:38;12.70;99.90
20398;DHT22;10358;49.590;11.030;2022-10-30T08:09:04;12.90;99.90
20398;DHT22;10358;49.590;11.030;2022-10-30T08:11:30;13.00;99.90
20398;DHT22;10358;49.590;11.030;2022-10-30T08:13:55;13.10;99.90
20398;DHT22;10358;49.590;11.030;2022-10-30T08:16:21;13.20;99.90
20398;DHT22;10358;49.590;11.030;2022-10-30T08:18:47;13.20;99.90
20398;DHT22;10358;49.590;11.030;2022-10-30T08:21:12;13.40;99.90
20398;DHT22;10358;49.590;11.030;2022-10-30T08:23:38;13.40;99.90
20398;DHT22;10358;49.590;11.030;2022-10-30T08:26:04;13.50;99.90
20398;DHT22;10358;49.590;11.030;2022-10-30T08:28:30;13.60;99.90
20398;DHT22;10358;49.590;11.030;2022-10-30T08:30:57;13.60;99.90
20398;DHT22;10358;49.590;11.030;2022-10-30T08:33:23;13.70;99.90
20398;DHT22;10358;49.590;11.030;2022-10-30T08:35:53;13.80;99.90
20398;DHT22;10358;49.590;11.030;2022-10-30T08:38:21;14.00;99.90
20398;DHT22;10358;49.590;11.030;2022-10-30T08:40:46;14.00;99.90
20398;DHT22;10358;49.590;11.030;2022-10-30T08:43:12;14.10;99.90
20398;DHT22;10358;49.590;11.030;2022-10-30T08:45:38;14.20;99.90
20398;DHT22;10358;49.590;11.030;2022-10-30T08:48:04;14.30;99.90
20398;DHT22;10358;49.590;11.030;2022-10-30T08:50:32;14.40;99.90
20398;DHT22;10358;49.590;11.030;2022-10-30T08:53:03;14.50;99.90
20398;DHT22;10358;49.590;11.030;2022-10-30T08:55:30;14.60;99.90
20398;DHT22;10358;49.590;11.030;2022-10-30T08:57:56;14.70;99.90
20398;DHT22;10358;49.590;11.030;2022-10-30T09:00:21;14.80;99.90
20398;DHT22;10358;49.590;11.030;2022-10-30T09:02:47;14.90;99.90
20398;DHT22;10358;49.590;11.030;2022-10-30T09:05:12;15.00;99.90
20398;DHT22;10358;49.590;11.030;2022-10-30T09:07:38;15.10;99.90
20398;DHT22;10358;49.590;11.030;2022-10-30T09:10:04;15.20;99.90
20398;DHT22;10358;49.590;11.030;2022-10-30T09:12:30;15.30;99.90
20398;DHT22;10358;49.590;11.030;2022-10-30T09:14:55;15.40;99.90
20398;DHT22;10358;49.590;11.030;2022-10-30T09:17:21;15.50;99.90
20398;DHT22;10358;49.590;11.030;2022-10-30T09:19:46;15.60;99.90
20398;DHT22;10358;49.590;11.030;2022-10-30T09:22:12;15.70;99.90
20398;DHT22;10358;49.590;11.030;2022-10-30T09:24:37;15.80;99.90
20398;DHT22;10358;49.590;11.030;2022-10-30T09:27:04;15.90;99.90
20398;DHT22;10358;49.590;11.030;2022-10-30T09:29:30;16.00;99.90
20398;DHT22;10358;49.590;11.030;2022-10-30T09:31:59;16.10;99.90
20398;DHT22;10358;49.590;11.030;2022-10-30T09:34:24;16.20;99.90
20398;DHT22;10358;49.590;11.030;2022-10-30T09:36:51;16.40;99.90
20398;DHT22;10358;49.590;11.030;2022-10-30T09:39:17;16.50;99.90
20398;DHT22;10358;49.590;11.030;2022-10-30T09:49:57;16.90;99.90
20398;DHT22;10358;49.590;11.030;2022-10-30T09:55:39;17.00;99.90
20398;DHT22;10358;49.590;11.030;2022-10-30T10:05:59;17.20;99.90
20398;DHT22;10358;49.590;11.030;2022-10-30T10:09:28;17.20;99.90
20398;DHT22;10358;49.590;11.030;2022-10-30T10:11:37;17.30;99.90
20398;DHT22;10358;49.590;11.030;2022-10-30T10:14:23;17.30;99.90
20398;DHT22;10358;49.590;11.030;2022-10-30T10:16:52;17.40;99.90
20398;DHT22;10358;49.590;11.030;2022-10-30T10:19:43;17.50;99.90
20398;DHT22;10358;49.590;11.030;2022-10-30T10:22:19;17.50;99.90
20398;DHT22;10358;49.590;11.030;2022-10-30T10:24:45;17.60;99.90
20398;DHT22;10358;49.590;11.030;2022-10-30T10:27:22;17.60;99.90
20398;DHT22;10358;49.590;11.030;2022-10-30T10:29:59;17.70;99.90
20398;DHT22;10358;49.590;11.030;2022-10-30T10:49:35;18.30;99.90
20398;DHT22;10358;49.590;11.030;2022-10-30T10:52:23;18.30;99.90
20398;DHT22;10358;49.590;11.030;2022-10-30T10:54:51;18.40;99.90
20398;DHT22;10358;49.590;11.030;2022-10-30T10:57:31;18.40;99.90
20398;DHT22;10358;49.590;11.030;2022-10-30T11:00:02;18.50;99.90
20398;DHT22;10358;49.590;11.030;2022-10-30T11:05:37;18.40;99.90
20398;DHT22;10358;49.590;11.030;2022-10-30T11:08:18;18.50;99.90
20398;DHT22;10358;49.590;11.030;2022-10-30T11:11:11;18.50;99.90
20398;DHT22;10358;49.590;11.030;2022-10-30T11:13:38;18.60;99.90
20398;DHT22;10358;49.590;11.030;2022-10-30T11:16:34;18.60;99.90
20398;DHT22;10358;49.590;11.030;2022-10-30T11:19:07;18.70;99.90
20398;DHT22;10358;49.590;11.030;2022-10-30T11:21:41;18.80;99.90
20398;DHT22;10358;49.590;11.030;2022-10-30T11:24:32;18.90;99.90
20398;DHT22;10358;49.590;11.030;2022-10-30T11:27:23;19.10;99.90
20398;DHT22;10358;49.590;11.030;2022-10-30T11:30:03;19.20;99.90
20398;DHT22;10358;49.590;11.030;2022-10-30T11:32:31;19.20;99.90
20398;DHT22;10358;49.590;11.030;2022-10-30T11:37:33;19.30;99.90
20398;DHT22;10358;49.590;11.030;2022-10-30T11:42:42;19.50;99.90
20398;DHT22;10358;49.590;11.030;2022-10-30T11:45:32;19.50;99.90
20398;DHT22;10358;49.590;11.030;2022-10-30T11:47:59;19.60;99.90
20398;DHT22;10358;49.590;11.030;2022-10-30T11:50:29;19.60;99.90
20398;DHT22;10358;49.590;11.030;2022-10-30T11:53:10;19.70;99.90
20398;DHT22;10358;49.590;11.030;2022-10-30T11:55:38;19.70;99.90
20398;DHT22;10358;49.590;11.030;2022-10-30T11:58:07;19.90;99.90
20398;DHT22;10358;49.590;11.030;2022-10-30T12:00:36;20.10;99.90
20398;DHT22;10358;49.590;11.030;2022-10-30T12:03:27;20.20;99.90
20398;DHT22;10358;49.590;11.030;2022-10-30T12:06:06;20.30;99.90
20398;DHT22;10358;49.590;11.030;2022-10-30T12:08:32;20.50;99.90
20398;DHT22;10358;49.590;11.030;2022-10-30T12:10:59;20.70;99.90
20398;DHT22;10358;49.590;11.030;2022-10-30T12:13:30;20.80;99.90
20398;DHT22;10358;49.590;11.030;2022-10-30T12:16:11;20.90;99.90
20398;DHT22;10358;49.590;11.030;2022-10-30T12:18:39;21.00;99.90
20398;DHT22;10358;49.590;11.030;2022-10-30T12:21:05;21.20;99.90
20398;DHT22;10358;49.590;11.030;2022-10-30T12:23:31;21.30;99.90
20398;DHT22;10358;49.590;11.030;2022-10-30T12:26:07;21.40;99.90
20398;DHT22;10358;49.590;11.030;2022-10-30T12:28:34;21.50;99.90
20398;DHT22;10358;49.590;11.030;2022-10-30T12:31:12;21.60;99.90
20398;DHT22;10358;49.590;11.030;2022-10-30T12:33:51;21.70;99.90
20398;DHT22;10358;49.590;11.030;2022-10-30T12:36:26;21.80;99.90
20398;DHT22;10358;49.590;11.030;2022-10-30T12:42:07;22.00;99.90
20398;DHT22;10358;49.590;11.030;2022-10-30T12:44:42;22.10;99.90
20398;DHT22;10358;49.590;11.030;2022-10-30T12:47:59;22.30;99.90
20398;DHT22;10358;49.590;11.030;2022-10-30T12:50:18;22.50;99.90
20398;DHT22;10358;49.590;11.030;2022-10-30T12:55:40;22.80;99.90
20398;DHT22;10358;49.590;11.030;2022-10-30T13:04:09;23.20;97.30
20398;DHT22;10358;49.590;11.030;2022-10-30T13:06:54;23.30;97.70
20398;DHT22;10358;49.590;11.030;2022-10-30T13:12:27;23.60;95.80
20398;DHT22;10358;49.590;11.030;2022-10-30T13:17:38;23.80;95.20
20398;DHT22;10358;49.590;11.030;2022-10-30T13:20:11;23.90;95.30
20398;DHT22;10358;49.590;11.030;2022-10-30T13:22:49;23.90;94.90
20398;DHT22;10358;49.590;11.030;2022-10-30T13:25:39;24.10;94.20
20398;DHT22;10358;49.590;11.030;2022-10-30T13:28:24;24.20;93.40
20398;DHT22;10358;49.590;11.030;2022-10-30T13:31:00;24.20;93.20
20398;DHT22;10358;49.590;11.030;2022-10-30T13:33:58;24.40;92.70
20398;DHT22;10358;49.590;11.030;2022-10-30T13:36:45;24.40;92.10
20398;DHT22;10358;49.590;11.030;2022-10-30T13:47:12;24.70;90.80
20398;DHT22;10358;49.590;11.030;2022-10-30T13:52:35;24.90;89.30
20398;DHT22;10358;49.590;11.030;2022-10-30T13:55:19;24.90;89.30
20398;DHT22;10358;49.590;11.030;2022-10-30T14:00:57;24.90;87.80
20398;DHT22;10358;49.590;11.030;2022-10-30T14:06:08;24.70;86.90
20398;DHT22;10358;49.590;11.030;2022-10-30T14:11:19;24.90;85.30
20398;DHT22;10358;49.590;11.030;2022-10-30T14:13:55;25.10;85.30
20398;DHT22;10358;49.590;11.030;2022-10-30T14:16:44;25.20;84.10
20398;DHT22;10358;49.590;11.030;2022-10-30T14:19:17;25.20;82.40
20398;DHT22;10358;49.590;11.030;2022-10-30T14:21:50;25.20;81.70
20398;DHT22;10358;49.590;11.030;2022-10-30T14:24:33;25.10;81.50
20398;DHT22;10358;49.590;11.030;2022-10-30T14:32:00;24.70;81.00
20398;DHT22;10358;49.590;11.030;2022-10-30T14:39:51;24.30;82.20
20398;DHT22;10358;49.590;11.030;2022-10-30T14:42:38;24.10;82.60
20398;DHT22;10358;49.590;11.030;2022-10-30T14:59:09;23.20;91.50
20398;DHT22;10358;49.590;11.030;2022-10-30T15:09:30;22.50;95.00
20398;DHT22;10358;49.590;11.030;2022-10-30T15:14:46;22.10;96.90
20398;DHT22;10358;49.590;11.030;2022-10-30T15:17:36;21.90;97.80
20398;DHT22;10358;49.590;11.030;2022-10-30T15:20:14;21.70;98.90
20398;DHT22;10358;49.590;11.030;2022-10-30T15:22:41;21.50;99.90
20398;DHT22;10358;49.590;11.030;2022-10-30T15:25:18;21.20;99.90
20398;DHT22;10358;49.590;11.030;2022-10-30T15:27:46;21.10;99.90
20398;DHT22;10358;49.590;11.030;2022-10-30T15:30:20;20.90;99.90
20398;DHT22;10358;49.590;11.030;2022-10-30T15:32:46;20.70;99.90
20398;DHT22;10358;49.590;11.030;2022-10-30T15:35:20;20.50;99.90
20398;DHT22;10358;49.590;11.030;2022-10-30T15:38:15;20.30;99.90
20398;DHT22;10358;49.590;11.030;2022-10-30T15:40:41;20.20;99.90
20398;DHT22;10358;49.590;11.030;2022-10-30T15:43:10;19.90;99.90
20398;DHT22;10358;49.590;11.030;2022-10-30T15:45:44;19.80;99.90
20398;DHT22;10358;49.590;11.030;2022-10-30T15:48:29;19.60;99.90
20398;DHT22;10358;49.590;11.030;2022-10-30T15:51:13;19.40;99.90
20398;DHT22;10358;49.590;11.030;2022-10-30T15:56:37;18.90;99.90
20398;DHT22;10358;49.590;11.030;2022-10-30T15:59:15;18.80;99.90
20398;DHT22;10358;49.590;11.030;2022-10-30T16:01:43;18.60;99.90
20398;DHT22;10358;49.590;11.030;2022-10-30T16:06:59;18.20;99.90
20398;DHT22;10358;49.590;11.030;2022-10-30T16:09:27;18.10;99.90
20398;DHT22;10358;49.590;11.030;2022-10-30T16:11:56;18.00;99.90
20398;DHT22;10358;49.590;11.030;2022-10-30T16:14:26;17.80;99.90
20398;DHT22;10358;49.590;11.030;2022-10-30T16:16:52;17.70;99.90
20398;DHT22;10358;49.590;11.030;2022-10-30T16:19:25;17.50;99.90
20398;DHT22;10358;49.590;11.030;2022-10-30T16:21:52;17.40;99.90
20398;DHT22;10358;49.590;11.030;2022-10-30T16:24:20;17.30;99.90
20398;DHT22;10358;49.590;11.030;2022-10-30T16:29:26;17.10;99.90
20398;DHT22;10358;49.590;11.030;2022-10-30T16:31:53;17.00;99.90
20398;DHT22;10358;49.590;11.030;2022-10-30T16:34:25;16.90;99.90
20398;DHT22;10358;49.590;11.030;2022-10-30T16:36:51;16.80;99.90
20398;DHT22;10358;49.590;11.030;2022-10-30T16:39:18;16.70;99.90
20398;DHT22;10358;49.590;11.030;2022-10-30T16:41:45;16.60;99.90
20398;DHT22;10358;49.590;11.030;2022-10-30T16:44:34;16.50;99.90
20398;DHT22;10358;49.590;11.030;2022-10-30T16:47:21;16.40;99.90
20398;DHT22;10358;49.590;11.030;2022-10-30T16:49:49;16.20;99.90
20398;DHT22;10358;49.590;11.030;2022-10-30T16:52:17;16.20;99.90
20398;DHT22;10358;49.590;11.030;2022-10-30T16:55:01;16.10;99.90
20398;DHT22;10358;49.590;11.030;2022-10-30T16:57:30;16.00;99.90
20398;DHT22;10358;49.590;11.030;2022-10-30T16:59:58;15.90;99.90
20398;DHT22;10358;49.590;11.030;2022-10-30T17:02:32;15.80;99.90
20398;DHT22;10358;49.590;11.030;2022-10-30T17:05:19;15.80;99.90
20398;DHT22;10358;49.590;11.030;2022-10-30T17:11:04;15.70;99.90
20398;DHT22;10358;49.590;11.030;2022-10-30T17:13:34;15.60;99.90
20398;DHT22;10358;49.590;11.030;2022-10-30T17:16:22;15.50;99.90
20398;DHT22;10358;49.590;11.030;2022-10-30T17:18:50;15.40;99.90
20398;DHT22;10358;49.590;11.030;2022-10-30T17:21:39;15.40;99.90
20398;DHT22;10358;49.590;11.030;2022-10-30T17:24:04;15.30;99.90
20398;DHT22;10358;49.590;11.030;2022-10-30T17:26:34;15.20;99.90
20398;DHT22;10358;49.590;11.030;2022-10-30T17:29:03;15.20;99.90
20398;DHT22;10358;49.590;11.030;2022-10-30T17:36:38;15.00;99.90
20398;DHT22;10358;49.590;11.030;2022-10-30T17:39:04;15.00;99.90
20398;DHT22;10358;49.590;11.030;2022-10-30T17:41:30;15.00;99.90
20398;DHT22;10358;49.590;11.030;2022-10-30T17:43:56;14.90;99.90
20398;DHT22;10358;49.590;11.030;2022-10-30T17:46:22;14.90;99.90
20398;DHT22;10358;49.590;11.030;2022-10-30T17:48:48;14.90;99.90
20398;DHT22;10358;49.590;11.030;2022-10-30T17:51:15;14.80;99.90
20398;DHT22;10358;49.590;11.030;2022-10-30T17:53:41;14.80;99.90
20398;DHT22;10358;49.590;11.030;2022-10-30T17:56:19;14.80;99.90
20398;DHT22;10358;49.590;11.030;2022-10-30T17:58:46;14.70;99.90
20398;DHT22;10358;49.590;11.030;2022-10-30T18:01:21;14.70;99.90
20398;DHT22;10358;49.590;11.030;2022-10-30T18:03:47;14.60;99.90
20398;DHT22;10358;49.590;11.030;2022-10-30T18:06:16;14.60;99.90
20398;DHT22;10358;49.590;11.030;2022-10-30T18:08:43;14.50;99.90
20398;DHT22;10358;49.590;11.030;2022-10-30T18:11:13;14.50;99.90